Time;durP1;ratioP1;P1;durP2;ratioP2;P2;SDS_P1;SDS_P2;PMS_P1;PMS_P2;Temp;Humidity;BMP_temperature;BMP_pressure;BME280_temperature;BME280_humidity;BME280_pressure;Samples;Min_cycle;Max_cycle;Signal;HPM_P1;HPM_P2
2022/09/08 00:02:27;;;;;;;6.82;4.30;;;;;21.70;95866.00;;;;8420495;28;20231;-71
2022/09/08 00:06:32;;;;;;;13.75;4.10;;;;;21.60;95881.00;;;;8417620;28;20232;-71
2022/09/08 00:10:35;;;;;;;7.57;4.60;;;;;21.50;95931.00;;;;8426368;28;20219;-72
2022/09/08 00:14:40;;;;;;;9.15;4.43;;;;;21.40;95931.00;;;;8422267;28;20704;-72
2022/09/08 00:18:43;;;;;;;6.25;3.53;;;;;21.30;95929.00;;;;8423488;28;20560;-72
2022/09/08 00:22:46;;;;;;;9.23;3.60;;;;;21.00;95913.00;;;;8424032;28;20219;-71
2022/09/08 00:26:51;;;;;;;3.72;3.00;;;;;20.90;95901.00;;;;8427848;28;20233;-72
2022/09/08 00:31:04;;;;;;;8.10;2.70;;;;;20.90;95896.00;;;;8433234;28;20222;-73
2022/09/08 00:35:14;;;;;;;3.70;2.28;;;;;20.80;95894.00;;;;8432884;28;20243;-72
2022/09/08 00:39:46;;;;;;;4.72;2.05;;;;;20.40;95896.00;;;;8430317;28;20351;-71
2022/09/08 00:43:52;;;;;;;2.60;1.80;;;;;20.20;95876.00;;;;8432983;28;20219;-72
2022/09/08 00:47:59;;;;;;;5.35;1.73;;;;;20.20;95883.00;;;;8432287;28;20227;-71
2022/09/08 00:52:09;;;;;;;1.60;1.40;;;;;20.10;95879.00;;;;8432374;28;20230;-71
2022/09/08 00:56:12;;;;;;;1.55;1.20;;;;;20.10;95884.00;;;;8418584;28;20564;-72
2022/09/08 01:00:18;;;;;;;2.90;1.30;;;;;20.20;95885.00;;;;8433413;28;20219;-72
2022/09/08 01:04:23;;;;;;;1.10;1.10;;;;;20.20;95881.00;;;;8431752;28;20215;-72
2022/09/08 01:12:59;;;;;;;1.75;1.10;;;;;20.20;95886.00;;;;8432734;28;20219;-71
2022/09/08 01:17:15;;;;;;;1.23;1.20;;;;;20.20;95861.00;;;;8418216;28;20227;-71
2022/09/08 01:21:44;;;;;;;2.33;1.20;;;;;20.00;95842.00;;;;8431233;28;20215;-73
2022/09/08 01:26:21;;;;;;;1.85;1.17;;;;;19.80;95833.00;;;;8431842;28;20302;-71
2022/09/08 01:30:26;;;;;;;2.25;1.65;;;;;19.70;95830.00;;;;8381800;28;20211;-71
2022/09/08 01:35:03;;;;;;;1.25;1.25;;;;;19.70;95799.00;;;;8430789;28;20226;-71
2022/09/08 01:39:06;;;;;;;1.42;1.30;;;;;19.60;95782.00;;;;8428864;28;20249;-71
2022/09/08 01:43:10;;;;;;;3.85;1.38;;;;;19.40;95771.00;;;;8430718;28;20233;-72
2022/09/08 01:47:44;;;;;;;1.52;1.40;;;;;19.10;95762.00;;;;8429886;28;20211;-72
2022/09/08 01:51:48;;;;;;;1.33;1.20;;;;;18.80;95742.00;;;;8431568;28;20239;-72
2022/09/08 01:55:51;;;;;;;6.53;1.35;;;;;18.80;95746.00;;;;8427916;28;20223;-72
2022/09/08 01:59:55;;;;;;;1.50;1.30;;;;;18.70;95745.00;;;;8430844;28;20231;-72
2022/09/08 02:03:58;;;;;;;4.28;1.40;;;;;18.70;95738.00;;;;8430159;28;20699;-70
2022/09/08 02:08:02;;;;;;;1.75;1.50;;;;;18.70;95759.00;;;;8430333;28;20234;-70
2022/09/08 02:12:36;;;;;;;2.97;1.58;;;;;18.70;95766.00;;;;8425183;28;20313;-68
2022/09/08 02:17:13;;;;;;;1.77;1.52;;;;;18.70;95772.00;;;;8429797;28;20222;-66
2022/09/08 02:21:50;;;;;;;3.05;1.83;;;;;18.60;95775.00;;;;8449595;27;20215;-62
2022/09/08 02:26:30;;;;;;;1.70;1.58;;;;;18.50;95779.00;;;;8429975;28;20211;-62
2022/09/08 02:31:06;;;;;;;1.52;1.42;;;;;18.40;95780.00;;;;8419888;28;20222;-63
2022/09/08 02:35:43;;;;;;;1.67;1.58;;;;;18.30;95798.00;;;;8428378;28;20218;-60
2022/09/08 02:39:47;;;;;;;3.15;1.85;;;;;18.30;95801.00;;;;8428454;28;20227;-63
2022/09/08 02:44:22;;;;;;;2.58;1.92;;;;;18.30;95806.00;;;;8427461;28;20223;-62
2022/09/08 02:48:26;;;;;;;3.50;1.80;;;;;18.20;95796.00;;;;8428915;28;20254;-62
2022/09/08 02:53:02;;;;;;;3.42;2.28;;;;;18.30;95809.00;;;;8429427;28;20219;-61
2022/09/08 02:57:05;;;;;;;3.67;1.95;;;;;18.30;95832.00;;;;8427754;28;20223;-61
2022/09/08 03:01:43;;;;;;;6.50;2.20;;;;;18.20;95823.00;;;;8428839;28;20219;-62
2022/09/08 03:05:47;;;;;;;5.55;2.20;;;;;18.10;95783.00;;;;8427992;28;20215;-61
2022/09/08 03:10:14;;;;;;;3.95;2.53;;;;;17.90;95756.00;;;;8428403;28;20231;-63
2022/09/08 03:14:17;;;;;;;6.03;2.28;;;;;17.80;95770.00;;;;8427926;28;20302;-62
2022/09/08 03:18:54;;;;;;;7.45;2.40;;;;;17.70;95727.00;;;;8428619;28;20230;-62
2022/09/08 03:22:59;;;;;;;2.53;2.08;;;;;17.70;95702.00;;;;8428174;28;20216;-61
2022/09/08 03:27:02;;;;;;;6.05;2.20;;;;;17.60;95710.00;;;;8428519;28;20229;-61
2022/09/08 03:31:39;;;;;;;7.93;2.53;;;;;17.60;95725.00;;;;8427552;28;20230;-61
2022/09/08 03:35:42;;;;;;;5.00;2.15;;;;;17.60;95730.00;;;;8428608;28;20223;-62
2022/09/08 03:40:21;;;;;;;2.58;2.38;;;;;17.60;95750.00;;;;8427224;28;20318;-63
2022/09/08 03:44:24;;;;;;;6.60;2.28;;;;;17.60;95759.00;;;;8427388;28;20211;-61
2022/09/08 03:48:27;;;;;;;5.95;2.45;;;;;17.70;95759.00;;;;8427939;28;20264;-61
2022/09/08 03:53:04;;;;;;;4.53;2.50;;;;;17.70;95764.00;;;;8427226;28;20219;-62
2022/09/08 03:57:08;;;;;;;4.30;2.70;;;;;17.80;95761.00;;;;8427262;28;20636;-62
2022/09/08 04:01:42;;;;;;;4.82;3.13;;;;;17.90;95766.00;;;;8427240;28;20223;-62
2022/09/08 04:05:46;;;;;;;2.97;2.60;;;;;17.90;95766.00;;;;8427089;28;20223;-62
2022/09/08 04:09:49;;;;;;;5.28;2.92;;;;;17.90;95746.00;;;;8427236;28;20312;-62
2022/09/08 04:14:27;;;;;;;5.93;2.78;;;;;17.90;95747.00;;;;8426325;28;20215;-62
2022/09/08 04:18:30;;;;;;;5.57;3.03;;;;;18.00;95731.00;;;;8427057;28;20296;-62
2022/09/08 04:23:07;;;;;;;5.18;3.03;;;;;18.00;95733.00;;;;8426771;28;20219;-63
2022/09/08 04:27:11;;;;;;;4.25;3.20;;;;;18.00;95736.00;;;;8426717;28;20230;-65
2022/09/08 04:31:17;;;;;;;7.38;2.95;;;;;18.10;95742.00;;;;8427197;28;20223;-63
2022/09/08 04:35:20;;;;;;;3.92;2.72;;;;;18.00;95761.00;;;;8426231;28;20219;-64
2022/09/08 04:39:23;;;;;;;7.90;3.25;;;;;18.00;95749.00;;;;8426085;28;20218;-63
2022/09/08 04:43:27;;;;;;;5.28;3.00;;;;;18.00;95737.00;;;;8427387;28;20230;-64
2022/09/08 04:47:58;;;;;;;4.25;2.80;;;;;17.90;95735.00;;;;8426169;28;20250;-62
2022/09/08 04:52:03;;;;;;;7.05;2.88;;;;;17.90;95759.00;;;;8426162;28;20235;-64
2022/09/08 04:56:08;;;;;;;7.75;3.00;;;;;17.90;95770.00;;;;8426222;28;20228;-64
2022/09/08 05:00:42;;;;;;;6.22;3.30;;;;;17.80;95777.00;;;;8426697;28;20219;-64
2022/09/08 05:04:45;;;;;;;6.75;3.10;;;;;17.80;95787.00;;;;8426137;28;20219;-64
2022/09/08 05:08:52;;;;;;;4.35;2.72;;;;;17.90;95784.00;;;;8426055;28;20644;-64
2022/09/08 05:12:56;;;;;;;5.38;2.67;;;;;17.90;95781.00;;;;8426817;28;20534;-64
2022/09/08 05:16:59;;;;;;;5.70;2.97;;;;;17.90;95777.00;;;;8431961;28;20548;-64
2022/09/08 05:21:36;;;;;;;4.95;2.60;;;;;17.90;95788.00;;;;8431642;28;20230;-64
2022/09/08 05:25:40;;;;;;;4.80;2.30;;;;;17.90;95791.00;;;;8431803;28;20222;-64
2022/09/08 05:29:43;;;;;;;4.82;2.70;;;;;17.90;95798.00;;;;8431271;28;20533;-64
2022/09/08 05:34:20;;;;;;;9.77;2.40;;;;;17.90;95800.00;;;;8431716;28;20223;-64
2022/09/08 05:38:24;;;;;;;2.65;2.40;;;;;18.10;95810.00;;;;8430984;28;20231;-65
2022/09/08 05:42:28;;;;;;;5.85;3.20;;;;;18.20;95818.00;;;;8432117;28;20234;-65
2022/09/08 05:46:31;;;;;;;8.50;3.35;;;;;18.20;95822.00;;;;8430707;28;20234;-65
2022/09/08 05:50:34;;;;;;;7.68;4.45;;;;;18.20;95825.00;;;;8430927;28;20219;-65
2022/09/08 05:55:11;;;;;;;9.05;5.28;;;;;18.20;95825.00;;;;8430668;28;20688;-65
2022/09/08 05:59:16;;;;;;;11.68;6.55;;;;;18.20;95827.00;;;;8430516;28;20518;-65
2022/09/08 06:03:51;;;;;;;15.65;9.23;;;;;18.20;95831.00;;;;8429106;28;20226;-65
2022/09/08 06:07:54;;;;;;;14.38;8.55;;;;;18.30;95832.00;;;;8430364;28;20211;-66
2022/09/08 06:11:57;;;;;;;17.35;10.68;;;;;18.30;95828.00;;;;8429744;28;20218;-66
2022/09/08 06:16:06;;;;;;;19.40;10.40;;;;;18.40;95833.00;;;;8430595;28;20223;-66
2022/09/08 06:20:10;;;;;;;17.45;11.05;;;;;18.40;95835.00;;;;8430551;28;20215;-65
2022/09/08 06:24:14;;;;;;;18.77;11.30;;;;;18.50;95834.00;;;;8429710;28;20227;-65
2022/09/08 06:28:51;;;;;;;28.00;11.10;;;;;18.50;95828.00;;;;8429294;28;20219;-66
2022/09/08 06:33:00;;;;;;;19.80;10.88;;;;;18.60;95827.00;;;;8429250;28;20212;-65
2022/09/08 06:37:07;;;;;;;17.30;11.25;;;;;18.70;95838.00;;;;8429850;28;20234;-65
2022/09/08 06:41:13;;;;;;;16.73;10.65;;;;;18.80;95835.00;;;;8429168;28;20220;-65
2022/09/08 06:45:23;;;;;;;14.48;9.93;;;;;18.90;95835.00;;;;8429702;28;20579;-66
2022/09/08 06:49:56;;;;;;;13.23;7.80;;;;;19.00;95831.00;;;;8429210;28;20637;-66
2022/09/08 06:54:10;;;;;;;8.55;6.25;;;;;19.10;95835.00;;;;8428913;28;20211;-66
2022/09/08 06:58:23;;;;;;;6.85;4.90;;;;;19.20;95833.00;;;;8428608;28;20242;-66
2022/09/08 07:02:50;;;;;;;5.03;4.50;;;;;19.10;95836.00;;;;8429035;28;20207;-67
2022/09/08 07:06:58;;;;;;;4.20;3.83;;;;;19.20;95842.00;;;;8428797;28;20225;-66
2022/09/08 07:11:10;;;;;;;4.72;3.97;;;;;19.10;95852.00;;;;8428405;28;20219;-67
2022/09/08 07:15:40;;;;;;;4.63;3.30;;;;;19.10;95857.00;;;;8428338;28;20216;-67
2022/09/08 07:19:49;;;;;;;3.83;3.47;;;;;19.00;95859.00;;;;8428702;28;20234;-67
2022/09/08 07:24:24;;;;;;;3.38;3.08;;;;;18.90;95859.00;;;;8428173;28;20216;-67
2022/09/08 07:28:32;;;;;;;3.05;2.80;;;;;18.90;95860.00;;;;8427873;28;20307;-67
2022/09/08 07:33:03;;;;;;;4.38;2.85;;;;;18.80;95860.00;;;;8427858;28;20215;-67
2022/09/08 07:37:23;;;;;;;4.53;2.90;;;;;18.80;95870.00;;;;8427746;28;20599;-68
2022/09/08 07:41:54;;;;;;;4.97;2.83;;;;;18.80;95867.00;;;;8427680;28;20547;-67
2022/09/08 07:46:07;;;;;;;3.83;2.78;;;;;18.70;95875.00;;;;8427431;28;20267;-67
2022/09/08 07:50:22;;;;;;;2.85;2.65;;;;;18.50;95881.00;;;;8428249;28;20653;-66
2022/09/08 07:54:54;;;;;;;4.30;2.90;;;;;18.40;95888.00;;;;8427027;28;20219;-65
2022/09/08 07:59:22;;;;;;;4.07;2.55;;;;;18.30;95890.00;;;;8426891;28;20234;-64
2022/09/08 08:03:49;;;;;;;5.93;2.50;;;;;18.30;95894.00;;;;8427417;28;20219;-64
2022/09/08 08:08:11;;;;;;;3.53;2.45;;;;;18.20;95901.00;;;;8427654;28;20215;-62
2022/09/08 08:12:24;;;;;;;3.25;2.33;;;;;18.20;95907.00;;;;8426885;28;20215;-62
2022/09/08 08:16:55;;;;;;;3.90;2.47;;;;;18.10;95910.00;;;;8426638;28;20653;-62
2022/09/08 08:21:05;;;;;;;7.05;2.33;;;;;18.10;95916.00;;;;8426530;28;20276;-62
2022/09/08 08:25:16;;;;;;;2.45;2.35;;;;;18.10;95929.00;;;;8427119;28;20214;-61
2022/09/08 08:29:51;;;;;;;2.50;2.30;;;;;18.10;95927.00;;;;8427240;28;20215;-62
2022/09/08 08:34:01;;;;;;;4.50;2.58;;;;;18.20;95928.00;;;;8427301;28;20211;-61
2022/09/08 08:38:31;;;;;;;2.38;2.17;;;;;18.10;95931.00;;;;8426879;28;20548;-61
2022/09/08 08:42:48;;;;;;;2.63;2.40;;;;;18.20;95939.00;;;;8426779;28;20227;-61
2022/09/08 08:47:11;;;;;;;1.95;1.85;;;;;18.20;95937.00;;;;8427121;28;20226;-61
2022/09/08 08:51:47;;;;;;;1.92;1.83;;;;;18.20;95936.00;;;;8433565;28;20223;-62
2022/09/08 08:56:04;;;;;;;3.70;2.08;;;;;18.20;95935.00;;;;8433575;28;20265;-62
2022/09/08 09:00:17;;;;;;;1.83;1.73;;;;;18.30;95935.00;;;;8431889;28;20680;-61
2022/09/08 09:05:00;;;;;;;1.95;1.85;;;;;18.30;95941.00;;;;8432442;28;20223;-62
2022/09/08 09:09:31;;;;;;;1.70;1.60;;;;;18.30;95936.00;;;;8414770;28;20226;-62
2022/09/08 09:13:53;;;;;;;1.80;1.70;;;;;18.40;95933.00;;;;8432644;28;20625;-62
2022/09/08 09:18:34;;;;;;;1.50;1.40;;;;;18.50;95930.00;;;;8431840;28;20218;-62
2022/09/08 09:23:11;;;;;;;1.67;1.58;;;;;18.60;95926.00;;;;8431935;28;20648;-63
2022/09/08 09:27:29;;;;;;;2.55;1.70;;;;;18.70;95920.00;;;;8432155;28;20211;-62
2022/09/08 09:32:09;;;;;;;1.50;1.48;;;;;18.80;95934.00;;;;8431643;28;20276;-62
2022/09/08 09:36:28;;;;;;;1.30;1.30;;;;;18.90;95933.00;;;;8417808;28;20223;-61
2022/09/08 09:40:45;;;;;;;2.38;1.40;;;;;19.00;95928.00;;;;8430936;28;20669;-63
2022/09/08 09:45:39;;;;;;;2.17;1.30;;;;;19.10;95931.00;;;;8432083;28;20227;-63
2022/09/08 09:50:28;;;;;;;1.90;1.35;;;;;19.20;95930.00;;;;8356729;28;20222;-64
2022/09/08 09:54:58;;;;;;;1.65;1.55;;;;;19.30;95921.00;;;;8429902;28;20268;-65
2022/09/08 09:59:40;;;;;;;2.13;1.45;;;;;19.40;95912.00;;;;8429744;28;20640;-66
2022/09/08 10:04:20;;;;;;;2.58;1.42;;;;;19.60;95916.00;;;;8431057;28;20219;-65
2022/09/08 10:13:47;;;;;;;2.50;1.30;;;;;20.00;95927.00;;;;8430377;28;20230;-65
2022/09/08 10:23:12;;;;;;;2.30;1.27;;;;;20.10;95929.00;;;;8429554;28;20219;-66
2022/09/08 10:28:03;;;;;;;2.42;1.50;;;;;19.50;95925.00;;;;8429994;28;20564;-63
2022/09/08 10:32:50;;;;;;;1.60;1.48;;;;;19.20;95927.00;;;;8428708;28;20211;-62
2022/09/08 10:37:04;;;;;;;2.55;1.30;;;;;19.00;95937.00;;;;8414019;28;20223;-62
2022/09/08 10:41:22;;;;;;;1.40;1.40;;;;;18.90;95939.00;;;;8429321;28;20211;-62
2022/09/08 10:45:55;;;;;;;1.38;1.38;;;;;18.90;95929.00;;;;8429674;28;20230;-62
2022/09/08 10:50:19;;;;;;;1.40;1.30;;;;;18.70;95958.00;;;;8429043;28;20609;-61
2022/09/08 10:54:52;;;;;;;1.40;1.30;;;;;18.60;95949.00;;;;8428839;28;20632;-61
2022/09/08 10:59:27;;;;;;;1.50;1.40;;;;;18.60;95952.00;;;;8429113;28;20215;-63
2022/09/08 11:04:17;;;;;;;3.25;1.33;;;;;18.60;95950.00;;;;8428556;28;20215;-65
2022/09/08 11:08:58;;;;;;;1.40;1.30;;;;;18.80;95946.00;;;;8428377;28;20296;-65
2022/09/08 11:13:21;;;;;;;1.65;1.35;;;;;19.00;95946.00;;;;8428325;28;20223;-66
2022/09/08 11:17:43;;;;;;;2.58;1.30;;;;;19.20;95954.00;;;;8427874;28;20289;-67
2022/09/08 11:21:56;;;;;;;1.75;1.60;;;;;19.50;95956.00;;;;8428527;28;20268;-67
2022/09/08 11:26:36;;;;;;;1.50;1.17;;;;;19.50;95959.00;;;;8427625;28;20609;-67
2022/09/08 11:30:49;;;;;;;1.23;1.13;;;;;19.60;95964.00;;;;8428105;28;20264;-67
2022/09/08 11:35:06;;;;;;;1.50;1.48;;;;;19.70;95966.00;;;;8427739;28;20576;-67
2022/09/08 11:39:27;;;;;;;2.50;1.45;;;;;19.80;95965.00;;;;8427710;28;20580;-67
2022/09/08 11:43:37;;;;;;;1.60;1.50;;;;;20.20;95979.00;;;;8427261;28;20309;-67
2022/09/08 11:48:02;;;;;;;1.40;1.35;;;;;20.30;95966.00;;;;8427637;28;20212;-68
2022/09/08 11:52:24;;;;;;;1.40;1.40;;;;;20.40;95965.00;;;;8427478;28;20219;-71
2022/09/08 11:57:29;;;;;;;2.03;1.55;;;;;20.70;95965.00;;;;8427834;28;20612;-71
2022/09/08 12:01:45;;;;;;;1.45;1.35;;;;;21.00;95972.00;;;;8348966;28;20226;-69
2022/09/08 12:06:20;;;;;;;1.92;1.30;;;;;21.30;95953.00;;;;8427427;28;20219;-69
2022/09/08 12:10:48;;;;;;;1.48;1.35;;;;;21.50;95954.00;;;;8401429;28;20569;-67
2022/09/08 12:15:03;;;;;;;1.23;1.17;;;;;21.60;95953.00;;;;8427748;28;20219;-67
2022/09/08 12:19:33;;;;;;;1.25;1.10;;;;;21.80;95952.00;;;;8427112;28;20222;-67
2022/09/08 12:23:49;;;;;;;3.08;1.30;;;;;22.10;95954.00;;;;8429421;28;20222;-67
2022/09/08 12:28:24;;;;;;;1.83;1.33;;;;;22.20;95960.00;;;;8433747;28;20657;-67
2022/09/08 12:33:08;;;;;;;1.35;1.25;;;;;22.20;95964.00;;;;8433718;28;20265;-67
2022/09/08 12:37:14;;;;;;;1.00;1.00;;;;;22.40;95972.00;;;;8433027;28;20230;-67
2022/09/08 12:41:52;;;;;;;1.42;1.40;;;;;22.20;95974.00;;;;8433411;28;20672;-67
2022/09/08 12:46:16;;;;;;;1.95;1.30;;;;;22.40;95959.00;;;;8433521;28;20222;-67
2022/09/08 12:50:34;;;;;;;1.10;1.10;;;;;22.90;95972.00;;;;8433485;28;20563;-67
2022/09/08 12:55:03;;;;;;;2.10;1.10;;;;;23.20;95982.00;;;;8433130;28;20219;-67
2022/09/08 12:59:21;;;;;;;1.00;1.00;;;;;23.60;95987.00;;;;8432728;28;20637;-68
2022/09/08 13:03:44;;;;;;;1.10;1.10;;;;;23.70;95992.00;;;;8432791;28;20218;-67
2022/09/08 13:07:56;;;;;;;1.10;1.10;;;;;23.60;95997.00;;;;8432179;28;20264;-67
2022/09/08 13:12:32;;;;;;;1.23;1.23;;;;;23.40;95991.00;;;;8431956;28;20215;-70
2022/09/08 13:16:45;;;;;;;0.90;0.90;;;;;23.30;95982.00;;;;8432342;28;20298;-68
2022/09/08 13:20:53;;;;;;;1.40;1.30;;;;;23.60;95972.00;;;;8431634;28;20230;-67
2022/09/08 13:25:27;;;;;;;1.20;1.20;;;;;23.50;95982.00;;;;8432195;28;20215;-67
2022/09/08 13:29:49;;;;;;;1.15;1.05;;;;;23.30;95980.00;;;;8432097;28;20215;-67
2022/09/08 13:34:35;;;;;;;1.10;1.10;;;;;23.10;95981.00;;;;8430394;28;20536;-67
2022/09/08 13:38:59;;;;;;;2.33;1.20;;;;;22.90;95984.00;;;;8431887;28;20310;-67
2022/09/08 13:43:26;;;;;;;1.33;1.30;;;;;23.00;95981.00;;;;8431224;28;20222;-67
2022/09/08 13:48:01;;;;;;;1.13;1.10;;;;;23.20;95973.00;;;;8429315;28;20211;-67
2022/09/08 13:52:26;;;;;;;1.85;1.20;;;;;23.70;95970.00;;;;8387695;28;20226;-67
2022/09/08 13:56:48;;;;;;;1.20;1.20;;;;;24.00;95960.00;;;;8431196;28;20211;-67
2022/09/08 14:01:06;;;;;;;2.60;1.17;;;;;24.40;95955.00;;;;8430311;28;20632;-67
2022/09/08 14:05:41;;;;;;;1.20;1.20;;;;;24.90;95973.00;;;;8431494;28;20692;-68
2022/09/08 14:10:08;;;;;;;3.47;1.30;;;;;25.30;95962.00;;;;8430583;28;20243;-67
2022/09/08 14:14:51;;;;;;;1.35;1.00;;;;;25.90;95956.00;;;;8430739;28;20560;-67
2022/09/08 14:19:30;;;;;;;1.35;1.30;;;;;26.50;95961.00;;;;8429585;28;20620;-67
2022/09/08 14:24:16;;;;;;;1.30;0.93;;;;;26.80;95963.00;;;;8430170;28;20218;-67
2022/09/08 14:28:20;;;;;;;4.93;1.50;;;;;26.10;95967.00;;;;8429793;28;20215;-68
2022/09/08 14:33:15;;;;;;;1.40;1.30;;;;;25.50;95967.00;;;;8429594;28;20561;-67
2022/09/08 14:37:26;;;;;;;1.20;1.10;;;;;24.90;95973.00;;;;8425273;28;20215;-67
2022/09/08 14:41:36;;;;;;;7.97;1.48;;;;;24.60;95964.00;;;;8429551;28;20552;-68
2022/09/08 14:45:50;;;;;;;1.60;1.30;;;;;24.20;95966.00;;;;8428382;28;20269;-67
2022/09/08 14:50:25;;;;;;;1.75;1.15;;;;;24.20;95961.00;;;;8429303;28;20219;-67
2022/09/08 14:54:38;;;;;;;0.95;0.95;;;;;24.90;95957.00;;;;8428961;28;20215;-68
2022/09/08 14:58:55;;;;;;;0.93;0.93;;;;;25.50;95963.00;;;;8429578;28;20299;-67
2022/09/08 15:03:02;;;;;;;0.88;0.88;;;;;25.60;95964.00;;;;8428793;28;20568;-67
2022/09/08 15:07:43;;;;;;;0.90;0.90;;;;;25.30;95980.00;;;;8429523;28;20220;-67
2022/09/08 15:11:48;;;;;;;1.08;1.00;;;;;25.20;95978.00;;;;8429019;28;20226;-68
2022/09/08 15:15:52;;;;;;;1.48;1.00;;;;;25.60;95983.00;;;;8429192;28;20223;-67
2022/09/08 15:20:03;;;;;;;1.27;1.10;;;;;26.00;95975.00;;;;8428164;28;20231;-67
2022/09/08 15:24:42;;;;;;;1.65;0.90;;;;;25.90;95970.00;;;;8428489;28;20227;-67
2022/09/08 15:29:23;;;;;;;1.40;1.30;;;;;25.90;95979.00;;;;8428360;28;20223;-68
2022/09/08 15:33:36;;;;;;;0.93;0.90;;;;;25.40;95972.00;;;;8410821;28;20663;-67
2022/09/08 15:37:48;;;;;;;0.80;0.77;;;;;25.00;95985.00;;;;8428205;28;20226;-67
2022/09/08 15:42:10;;;;;;;0.88;0.88;;;;;24.60;95979.00;;;;8428136;28;20219;-67
2022/09/08 15:46:38;;;;;;;1.48;1.10;;;;;24.70;95972.00;;;;8427397;28;20279;-67
2022/09/08 15:50:56;;;;;;;0.90;0.90;;;;;25.20;95965.00;;;;8427309;28;20226;-67
2022/09/08 15:55:06;;;;;;;2.22;1.13;;;;;25.80;95963.00;;;;8426978;28;20265;-67
2022/09/08 15:59:45;;;;;;;2.78;0.90;;;;;25.90;95963.00;;;;8426403;28;20699;-68
2022/09/08 16:03:54;;;;;;;1.52;1.00;;;;;25.90;95959.00;;;;8426671;28;20224;-67
2022/09/08 16:08:33;;;;;;;1.65;0.90;;;;;26.00;95962.00;;;;8427865;28;20227;-67
2022/09/08 16:12:48;;;;;;;0.95;0.90;;;;;26.40;95962.00;;;;8427158;28;20529;-67
2022/09/08 16:17:02;;;;;;;3.35;1.00;;;;;26.60;95961.00;;;;8427831;28;20211;-67
2022/09/08 16:21:27;;;;;;;1.35;0.90;;;;;26.70;95953.00;;;;8426671;28;20698;-67
2022/09/08 16:25:36;;;;;;;1.15;1.00;;;;;27.20;95952.00;;;;8427189;28;20222;-67
2022/09/08 16:29:54;;;;;;;1.13;0.95;;;;;27.30;95960.00;;;;8427336;28;20207;-68
2022/09/08 16:34:32;;;;;;;2.13;0.95;;;;;27.50;95973.00;;;;8427287;28;20215;-65
2022/09/08 16:38:41;;;;;;;0.80;0.80;;;;;27.40;95974.00;;;;8290155;28;20226;-62
2022/09/08 16:42:55;;;;;;;0.88;0.88;;;;;26.70;95970.00;;;;8356376;28;20231;-67
2022/09/08 16:47:21;;;;;;;2.30;0.80;;;;;25.90;95954.00;;;;8427108;28;20219;-67
2022/09/08 16:51:40;;;;;;;1.45;0.90;;;;;25.10;95970.00;;;;8426445;28;20233;-65
2022/09/08 16:55:53;;;;;;;0.95;0.93;;;;;24.40;95974.00;;;;8426840;28;20242;-66
2022/09/08 17:00:22;;;;;;;2.35;0.90;;;;;23.90;95974.00;;;;8419001;28;20633;-66
2022/09/08 17:04:32;;;;;;;1.67;1.08;;;;;23.50;95964.00;;;;8425354;28;20223;-66
2022/09/08 17:08:46;;;;;;;1.30;1.20;;;;;23.10;95960.00;;;;8426187;28;20211;-66
2022/09/08 17:13:00;;;;;;;0.82;0.82;;;;;22.70;95970.00;;;;8432362;28;20215;-67
2022/09/08 17:17:49;;;;;;;0.80;0.80;;;;;22.30;95961.00;;;;8432354;28;20215;-66
2022/09/08 17:22:38;;;;;;;1.25;1.15;;;;;21.80;95964.00;;;;8431560;28;20234;-67
2022/09/08 17:27:06;;;;;;;2.72;1.05;;;;;21.30;95958.00;;;;8384478;28;20341;-66
2022/09/08 17:31:30;;;;;;;2.50;1.10;;;;;20.80;95963.00;;;;8431689;28;20231;-67
2022/09/08 17:35:53;;;;;;;4.18;1.10;;;;;20.30;95965.00;;;;8431711;28;20227;-67
2022/09/08 17:40:10;;;;;;;2.90;1.00;;;;;20.00;95965.00;;;;8431937;28;20222;-66
2022/09/08 17:44:46;;;;;;;2.58;1.08;;;;;19.50;95973.00;;;;8431659;28;20317;-66
2022/09/08 17:48:57;;;;;;;1.27;1.17;;;;;19.20;95976.00;;;;8428003;28;20568;-67
2022/09/08 17:53:24;;;;;;;1.20;1.10;;;;;18.90;95981.00;;;;8431240;28;20235;-66
2022/09/08 17:57:27;;;;;;;1.08;1.08;;;;;18.50;95975.00;;;;8430453;28;20223;-67
2022/09/08 18:01:47;;;;;;;1.13;1.10;;;;;18.30;95983.00;;;;8430511;28;20232;-66
2022/09/08 18:05:53;;;;;;;1.40;1.30;;;;;18.00;95979.00;;;;8430760;28;20664;-65
2022/09/08 18:10:33;;;;;;;2.13;1.10;;;;;17.80;95980.00;;;;8430845;28;20591;-65
2022/09/08 18:14:46;;;;;;;6.95;1.13;;;;;17.50;95993.00;;;;8430518;28;20592;-65
2022/09/08 18:19:23;;;;;;;1.75;1.60;;;;;17.30;95993.00;;;;8430131;28;20656;-65
2022/09/08 18:23:36;;;;;;;1.30;1.30;;;;;17.10;96005.00;;;;8428812;28;20660;-67
2022/09/08 18:27:53;;;;;;;1.80;1.60;;;;;17.00;96008.00;;;;8429825;28;20621;-65
2022/09/08 18:32:03;;;;;;;1.55;1.45;;;;;16.90;96010.00;;;;8429198;28;20548;-65
2022/09/08 18:36:17;;;;;;;1.70;1.40;;;;;16.80;96024.00;;;;8429302;28;20679;-65
2022/09/08 18:40:43;;;;;;;1.63;1.52;;;;;16.60;96031.00;;;;8429770;28;20226;-65
2022/09/08 18:44:50;;;;;;;4.20;1.58;;;;;16.50;96035.00;;;;8428782;28;20576;-66
2022/09/08 18:49:11;;;;;;;1.85;1.75;;;;;16.50;96033.00;;;;8428883;28;20242;-66
2022/09/08 18:53:29;;;;;;;1.60;1.50;;;;;16.50;96034.00;;;;8429345;28;20231;-65
2022/09/08 18:57:33;;;;;;;2.03;1.83;;;;;16.50;96030.00;;;;8428854;28;20276;-66
2022/09/08 19:01:55;;;;;;;4.78;1.92;;;;;16.50;96038.00;;;;8428886;28;20234;-66
2022/09/08 19:06:07;;;;;;;3.53;1.70;;;;;16.40;96043.00;;;;8429050;28;20230;-66
2022/09/08 19:10:24;;;;;;;3.80;1.80;;;;;16.30;96045.00;;;;8428599;28;20215;-65
2022/09/08 19:14:58;;;;;;;6.22;2.38;;;;;16.20;96043.00;;;;8428999;28;20219;-66
2022/09/08 19:19:19;;;;;;;3.85;1.73;;;;;16.10;96045.00;;;;8427724;28;20242;-66
2022/09/08 19:23:39;;;;;;;2.30;1.90;;;;;16.00;96048.00;;;;8428358;28;20223;-65
2022/09/08 19:28:02;;;;;;;3.05;2.00;;;;;15.90;96049.00;;;;8427660;28;20245;-66
2022/09/08 19:32:16;;;;;;;1.90;1.80;;;;;16.00;96043.00;;;;8427358;28;20215;-65
2022/09/08 19:36:47;;;;;;;2.95;1.83;;;;;15.90;96056.00;;;;8426305;28;20234;-65
2022/09/08 19:41:00;;;;;;;3.25;1.55;;;;;15.80;96057.00;;;;8428109;28;20215;-65
2022/09/08 19:45:19;;;;;;;2.50;1.75;;;;;15.70;96056.00;;;;8427047;28;20219;-66
2022/09/08 19:50:07;;;;;;;2.28;2.10;;;;;15.70;96055.00;;;;8428235;28;20214;-65
2022/09/08 19:54:44;;;;;;;4.43;1.88;;;;;15.60;96056.00;;;;8416801;28;20215;-65
2022/09/08 19:59:01;;;;;;;3.00;2.28;;;;;15.50;96061.00;;;;8427086;28;20276;-65
2022/09/08 20:03:12;;;;;;;3.53;2.78;;;;;15.60;96065.00;;;;8426644;28;20224;-65
2022/09/08 20:07:36;;;;;;;3.85;2.45;;;;;15.60;96062.00;;;;8427469;28;20262;-65
2022/09/08 20:11:53;;;;;;;2.40;2.20;;;;;15.60;96061.00;;;;8426381;28;20218;-65
2022/09/08 20:15:59;;;;;;;2.28;1.90;;;;;15.60;96067.00;;;;8427366;28;20228;-67
2022/09/08 20:20:18;;;;;;;2.15;1.95;;;;;15.60;96062.00;;;;8426789;28;20223;-65
2022/09/08 20:24:58;;;;;;;3.53;2.30;;;;;15.50;96060.00;;;;8427637;28;20234;-66
2022/09/08 20:29:21;;;;;;;4.25;2.50;;;;;15.60;96067.00;;;;8427185;28;20265;-66
2022/09/08 20:33:41;;;;;;;2.53;2.00;;;;;15.60;96056.00;;;;8426925;28;20218;-65
2022/09/08 20:38:24;;;;;;;3.40;2.92;;;;;15.60;96065.00;;;;8425113;28;20230;-65
2022/09/08 20:42:37;;;;;;;3.53;2.58;;;;;15.60;96070.00;;;;8426210;28;20261;-66
2022/09/08 20:46:52;;;;;;;5.53;2.58;;;;;15.70;96072.00;;;;8429910;28;20227;-65
2022/09/08 20:51:19;;;;;;;6.43;2.40;;;;;15.70;96076.00;;;;8433140;28;20215;-65
2022/09/08 20:55:25;;;;;;;5.03;2.78;;;;;15.60;96080.00;;;;8432897;28;20215;-66
2022/09/08 20:59:29;;;;;;;6.93;2.65;;;;;15.50;96091.00;;;;8432769;28;20207;-66
2022/09/08 21:03:39;;;;;;;8.60;3.22;;;;;15.40;96092.00;;;;8432875;28;20223;-66
2022/09/08 21:07:45;;;;;;;3.92;2.38;;;;;15.30;96086.00;;;;8432692;28;20219;-65
2022/09/08 21:11:50;;;;;;;4.78;3.10;;;;;15.30;96088.00;;;;8433307;28;20632;-65
2022/09/08 21:15:56;;;;;;;4.32;2.53;;;;;15.20;96098.00;;;;8432447;28;20219;-65
2022/09/08 21:20:13;;;;;;;3.67;3.20;;;;;15.10;96097.00;;;;8432799;28;20656;-65
2022/09/08 21:24:26;;;;;;;6.43;3.60;;;;;15.10;96098.00;;;;8431995;28;20281;-65
2022/09/08 21:28:37;;;;;;;5.85;3.47;;;;;15.00;96104.00;;;;8432054;28;20221;-67
2022/09/08 21:33:03;;;;;;;9.57;3.95;;;;;15.00;96109.00;;;;8431557;28;20565;-65
2022/09/08 21:37:16;;;;;;;5.88;4.05;;;;;15.10;96109.00;;;;8431767;28;20214;-66
2022/09/08 21:41:28;;;;;;;4.45;3.55;;;;;14.90;96106.00;;;;8432085;28;20232;-66
2022/09/08 21:45:39;;;;;;;4.25;3.85;;;;;15.00;96099.00;;;;8431278;28;20215;-65
2022/09/08 21:49:46;;;;;;;4.18;3.78;;;;;14.90;96103.00;;;;8431649;28;20223;-65
2022/09/08 21:53:52;;;;;;;7.50;3.72;;;;;14.90;96101.00;;;;8431114;28;20242;-65